sensor_id;sensor_type;location;lat;lon;timestamp;P1;durP1;ratioP1;P2;durP2;ratioP2
34236;SDS011;20501;45.956;13.632;2023-12-22T00:01:07;40.95;;;22.30;;
34236;SDS011;20501;45.956;13.632;2023-12-22T00:03:32;39.00;;;22.90;;
34236;SDS011;20501;45.956;13.632;2023-12-22T00:05:58;44.25;;;23.90;;
34236;SDS011;20501;45.956;13.632;2023-12-22T00:08:23;43.55;;;22.73;;
34236;SDS011;20501;45.956;13.632;2023-12-22T00:10:49;42.35;;;22.73;;
34236;SDS011;20501;45.956;13.632;2023-12-22T00:13:15;41.00;;;21.92;;
34236;SDS011;20501;45.956;13.632;2023-12-22T00:15:40;38.53;;;21.92;;
34236;SDS011;20501;45.956;13.632;2023-12-22T00:18:07;39.90;;;23.45;;
34236;SDS011;20501;45.956;13.632;2023-12-22T00:20:33;46.97;;;24.25;;
34236;SDS011;20501;45.956;13.632;2023-12-22T00:22:58;47.85;;;25.08;;
34236;SDS011;20501;45.956;13.632;2023-12-22T00:25:24;45.22;;;24.15;;
34236;SDS011;20501;45.956;13.632;2023-12-22T00:27:49;48.75;;;26.30;;
34236;SDS011;20501;45.956;13.632;2023-12-22T00:30:14;47.40;;;26.42;;
34236;SDS011;20501;45.956;13.632;2023-12-22T00:32:40;47.38;;;25.55;;
34236;SDS011;20501;45.956;13.632;2023-12-22T00:35:05;49.88;;;26.80;;
34236;SDS011;20501;45.956;13.632;2023-12-22T00:37:31;50.47;;;27.27;;
34236;SDS011;20501;45.956;13.632;2023-12-22T00:39:57;51.17;;;28.85;;
34236;SDS011;20501;45.956;13.632;2023-12-22T00:42:22;49.35;;;26.85;;
34236;SDS011;20501;45.956;13.632;2023-12-22T00:44:47;49.72;;;27.88;;
34236;SDS011;20501;45.956;13.632;2023-12-22T00:47:13;52.28;;;28.38;;
34236;SDS011;20501;45.956;13.632;2023-12-22T00:49:38;48.45;;;27.08;;
34236;SDS011;20501;45.956;13.632;2023-12-22T00:52:04;50.55;;;29.05;;
34236;SDS011;20501;45.956;13.632;2023-12-22T00:54:29;52.47;;;26.38;;
34236;SDS011;20501;45.956;13.632;2023-12-22T00:56:56;47.25;;;27.15;;
34236;SDS011;20501;45.956;13.632;2023-12-22T00:59:23;48.67;;;28.07;;
34236;SDS011;20501;45.956;13.632;2023-12-22T01:01:48;47.15;;;26.15;;
34236;SDS011;20501;45.956;13.632;2023-12-22T01:04:14;49.10;;;25.58;;
34236;SDS011;20501;45.956;13.632;2023-12-22T01:06:40;40.42;;;23.48;;
34236;SDS011;20501;45.956;13.632;2023-12-22T01:09:05;45.20;;;25.80;;
34236;SDS011;20501;45.956;13.632;2023-12-22T01:11:31;47.83;;;24.15;;
34236;SDS011;20501;45.956;13.632;2023-12-22T01:13:57;40.03;;;23.33;;
34236;SDS011;20501;45.956;13.632;2023-12-22T01:16:22;41.67;;;23.42;;
34236;SDS011;20501;45.956;13.632;2023-12-22T01:18:49;46.17;;;25.48;;
34236;SDS011;20501;45.956;13.632;2023-12-22T01:21:15;47.88;;;24.60;;
34236;SDS011;20501;45.956;13.632;2023-12-22T01:23:41;47.08;;;23.95;;
34236;SDS011;20501;45.956;13.632;2023-12-22T01:26:07;40.65;;;22.83;;
34236;SDS011;20501;45.956;13.632;2023-12-22T01:28:34;44.63;;;23.77;;
34236;SDS011;20501;45.956;13.632;2023-12-22T01:31:00;41.25;;;23.67;;
34236;SDS011;20501;45.956;13.632;2023-12-22T01:33:25;43.10;;;23.73;;
34236;SDS011;20501;45.956;13.632;2023-12-22T01:35:51;37.40;;;22.05;;
34236;SDS011;20501;45.956;13.632;2023-12-22T01:38:17;42.80;;;24.67;;
34236;SDS011;20501;45.956;13.632;2023-12-22T01:40:42;38.15;;;21.02;;
34236;SDS011;20501;45.956;13.632;2023-12-22T01:43:08;43.00;;;23.17;;
34236;SDS011;20501;45.956;13.632;2023-12-22T01:45:33;44.90;;;22.70;;
34236;SDS011;20501;45.956;13.632;2023-12-22T01:47:58;41.00;;;23.60;;
34236;SDS011;20501;45.956;13.632;2023-12-22T01:50:24;38.75;;;20.77;;
34236;SDS011;20501;45.956;13.632;2023-12-22T01:52:51;42.07;;;21.10;;
34236;SDS011;20501;45.956;13.632;2023-12-22T01:55:16;43.63;;;19.80;;
34236;SDS011;20501;45.956;13.632;2023-12-22T01:57:43;38.40;;;20.75;;
34236;SDS011;20501;45.956;13.632;2023-12-22T02:00:09;39.28;;;21.45;;
34236;SDS011;20501;45.956;13.632;2023-12-22T02:02:36;42.42;;;22.92;;
34236;SDS011;20501;45.956;13.632;2023-12-22T02:05:03;41.05;;;20.92;;
34236;SDS011;20501;45.956;13.632;2023-12-22T02:07:29;46.33;;;22.80;;
34236;SDS011;20501;45.956;13.632;2023-12-22T02:09:55;41.90;;;22.15;;
34236;SDS011;20501;45.956;13.632;2023-12-22T02:12:21;36.20;;;20.00;;
34236;SDS011;20501;45.956;13.632;2023-12-22T02:14:47;44.88;;;22.42;;
34236;SDS011;20501;45.956;13.632;2023-12-22T02:17:16;37.42;;;20.45;;
34236;SDS011;20501;45.956;13.632;2023-12-22T02:19:48;37.15;;;20.08;;
34236;SDS011;20501;45.956;13.632;2023-12-22T02:24:41;36.45;;;20.45;;
34236;SDS011;20501;45.956;13.632;2023-12-22T02:30:11;34.75;;;19.77;;
34236;SDS011;20501;45.956;13.632;2023-12-22T02:32:41;41.60;;;21.65;;
34236;SDS011;20501;45.956;13.632;2023-12-22T02:35:14;38.05;;;21.42;;
34236;SDS011;20501;45.956;13.632;2023-12-22T02:37:42;39.42;;;21.70;;
34236;SDS011;20501;45.956;13.632;2023-12-22T02:40:10;35.60;;;21.02;;
34236;SDS011;20501;45.956;13.632;2023-12-22T02:42:36;40.65;;;22.25;;
34236;SDS011;20501;45.956;13.632;2023-12-22T02:47:29;38.35;;;22.00;;
34236;SDS011;20501;45.956;13.632;2023-12-22T02:49:54;43.78;;;22.55;;
34236;SDS011;20501;45.956;13.632;2023-12-22T02:52:20;40.08;;;21.08;;
34236;SDS011;20501;45.956;13.632;2023-12-22T02:54:45;39.42;;;21.60;;
34236;SDS011;20501;45.956;13.632;2023-12-22T02:57:12;44.00;;;23.08;;
34236;SDS011;20501;45.956;13.632;2023-12-22T02:59:38;49.38;;;22.17;;
34236;SDS011;20501;45.956;13.632;2023-12-22T03:02:03;37.38;;;20.92;;
34236;SDS011;20501;45.956;13.632;2023-12-22T03:04:29;40.15;;;21.73;;
34236;SDS011;20501;45.956;13.632;2023-12-22T03:06:54;38.67;;;21.17;;
34236;SDS011;20501;45.956;13.632;2023-12-22T03:09:20;34.17;;;19.50;;
34236;SDS011;20501;45.956;13.632;2023-12-22T03:11:46;36.00;;;19.35;;
34236;SDS011;20501;45.956;13.632;2023-12-22T03:14:12;40.15;;;19.27;;
34236;SDS011;20501;45.956;13.632;2023-12-22T03:16:37;47.38;;;21.83;;
34236;SDS011;20501;45.956;13.632;2023-12-22T03:19:03;40.60;;;22.83;;
34236;SDS011;20501;45.956;13.632;2023-12-22T03:21:28;41.67;;;20.83;;
34236;SDS011;20501;45.956;13.632;2023-12-22T03:23:54;37.28;;;20.33;;
34236;SDS011;20501;45.956;13.632;2023-12-22T03:26:19;35.70;;;21.27;;
34236;SDS011;20501;45.956;13.632;2023-12-22T03:28:45;37.17;;;19.60;;
34236;SDS011;20501;45.956;13.632;2023-12-22T03:31:10;33.30;;;20.10;;
34236;SDS011;20501;45.956;13.632;2023-12-22T03:33:36;40.45;;;21.52;;
34236;SDS011;20501;45.956;13.632;2023-12-22T03:36:01;41.33;;;22.05;;
34236;SDS011;20501;45.956;13.632;2023-12-22T03:38:26;35.83;;;19.75;;
34236;SDS011;20501;45.956;13.632;2023-12-22T03:40:52;39.92;;;21.45;;
34236;SDS011;20501;45.956;13.632;2023-12-22T03:43:17;34.13;;;19.02;;
34236;SDS011;20501;45.956;13.632;2023-12-22T03:45:43;33.08;;;19.95;;
34236;SDS011;20501;45.956;13.632;2023-12-22T03:48:08;34.85;;;18.80;;
34236;SDS011;20501;45.956;13.632;2023-12-22T03:50:34;33.45;;;18.50;;
34236;SDS011;20501;45.956;13.632;2023-12-22T03:52:59;30.95;;;18.95;;
34236;SDS011;20501;45.956;13.632;2023-12-22T03:55:24;32.17;;;18.25;;
34236;SDS011;20501;45.956;13.632;2023-12-22T03:57:50;32.63;;;18.42;;
34236;SDS011;20501;45.956;13.632;2023-12-22T04:00:15;35.17;;;18.60;;
34236;SDS011;20501;45.956;13.632;2023-12-22T04:02:41;36.92;;;19.67;;
34236;SDS011;20501;45.956;13.632;2023-12-22T04:05:07;34.88;;;18.30;;
34236;SDS011;20501;45.956;13.632;2023-12-22T04:07:32;34.22;;;18.70;;
34236;SDS011;20501;45.956;13.632;2023-12-22T04:09:58;30.65;;;18.20;;
34236;SDS011;20501;45.956;13.632;2023-12-22T04:12:24;33.70;;;18.30;;
34236;SDS011;20501;45.956;13.632;2023-12-22T04:14:49;34.88;;;19.58;;
34236;SDS011;20501;45.956;13.632;2023-12-22T04:17:15;30.13;;;16.95;;
34236;SDS011;20501;45.956;13.632;2023-12-22T04:19:40;36.08;;;18.67;;
34236;SDS011;20501;45.956;13.632;2023-12-22T04:22:06;34.45;;;19.67;;
34236;SDS011;20501;45.956;13.632;2023-12-22T04:24:31;33.30;;;18.15;;
34236;SDS011;20501;45.956;13.632;2023-12-22T04:26:56;32.97;;;18.23;;
34236;SDS011;20501;45.956;13.632;2023-12-22T04:29:22;32.45;;;17.75;;
34236;SDS011;20501;45.956;13.632;2023-12-22T04:31:47;37.53;;;19.35;;
34236;SDS011;20501;45.956;13.632;2023-12-22T04:34:13;38.10;;;19.92;;
34236;SDS011;20501;45.956;13.632;2023-12-22T04:36:41;37.33;;;20.98;;
34236;SDS011;20501;45.956;13.632;2023-12-22T04:39:07;34.10;;;20.10;;
34236;SDS011;20501;45.956;13.632;2023-12-22T04:41:32;36.85;;;19.95;;
34236;SDS011;20501;45.956;13.632;2023-12-22T04:43:58;42.22;;;22.88;;
34236;SDS011;20501;45.956;13.632;2023-12-22T04:46:28;43.63;;;22.02;;
34236;SDS011;20501;45.956;13.632;2023-12-22T04:48:54;38.75;;;22.80;;
34236;SDS011;20501;45.956;13.632;2023-12-22T04:51:19;39.55;;;22.70;;
34236;SDS011;20501;45.956;13.632;2023-12-22T04:53:44;40.88;;;23.20;;
34236;SDS011;20501;45.956;13.632;2023-12-22T04:56:10;40.95;;;21.77;;
34236;SDS011;20501;45.956;13.632;2023-12-22T04:58:35;45.03;;;22.52;;
34236;SDS011;20501;45.956;13.632;2023-12-22T05:01:01;42.85;;;21.83;;
34236;SDS011;20501;45.956;13.632;2023-12-22T05:03:26;37.92;;;21.52;;
34236;SDS011;20501;45.956;13.632;2023-12-22T05:05:52;41.75;;;21.73;;
34236;SDS011;20501;45.956;13.632;2023-12-22T05:08:17;39.58;;;22.60;;
34236;SDS011;20501;45.956;13.632;2023-12-22T05:10:43;42.22;;;21.38;;
34236;SDS011;20501;45.956;13.632;2023-12-22T05:13:08;42.83;;;21.05;;
34236;SDS011;20501;45.956;13.632;2023-12-22T05:15:35;33.97;;;20.02;;
34236;SDS011;20501;45.956;13.632;2023-12-22T05:20:26;41.17;;;21.92;;
34236;SDS011;20501;45.956;13.632;2023-12-22T05:22:51;33.58;;;20.67;;
34236;SDS011;20501;45.956;13.632;2023-12-22T05:25:17;36.83;;;21.42;;
34236;SDS011;20501;45.956;13.632;2023-12-22T05:27:42;37.35;;;20.65;;
34236;SDS011;20501;45.956;13.632;2023-12-22T05:30:08;37.53;;;20.17;;
34236;SDS011;20501;45.956;13.632;2023-12-22T05:32:34;38.00;;;20.87;;
34236;SDS011;20501;45.956;13.632;2023-12-22T05:34:59;38.97;;;21.58;;
34236;SDS011;20501;45.956;13.632;2023-12-22T05:37:25;42.63;;;25.73;;
34236;SDS011;20501;45.956;13.632;2023-12-22T05:39:50;42.30;;;25.63;;
34236;SDS011;20501;45.956;13.632;2023-12-22T05:42:16;46.58;;;27.95;;
34236;SDS011;20501;45.956;13.632;2023-12-22T05:44:41;47.00;;;28.13;;
34236;SDS011;20501;45.956;13.632;2023-12-22T05:47:07;45.90;;;26.55;;
34236;SDS011;20501;45.956;13.632;2023-12-22T05:49:33;45.15;;;26.08;;
34236;SDS011;20501;45.956;13.632;2023-12-22T05:51:58;48.75;;;28.80;;
34236;SDS011;20501;45.956;13.632;2023-12-22T05:54:24;51.70;;;29.05;;
34236;SDS011;20501;45.956;13.632;2023-12-22T05:56:50;55.67;;;30.27;;
34236;SDS011;20501;45.956;13.632;2023-12-22T05:59:17;53.03;;;29.20;;
34236;SDS011;20501;45.956;13.632;2023-12-22T06:01:42;56.03;;;30.25;;
34236;SDS011;20501;45.956;13.632;2023-12-22T06:04:08;54.97;;;29.50;;
34236;SDS011;20501;45.956;13.632;2023-12-22T06:06:34;52.20;;;29.48;;
34236;SDS011;20501;45.956;13.632;2023-12-22T06:11:26;49.47;;;28.83;;
34236;SDS011;20501;45.956;13.632;2023-12-22T06:13:51;62.63;;;32.30;;
34236;SDS011;20501;45.956;13.632;2023-12-22T06:16:17;57.05;;;32.95;;
34236;SDS011;20501;45.956;13.632;2023-12-22T06:18:43;56.03;;;31.42;;
34236;SDS011;20501;45.956;13.632;2023-12-22T06:21:09;62.63;;;32.95;;
34236;SDS011;20501;45.956;13.632;2023-12-22T06:23:35;68.55;;;34.33;;
34236;SDS011;20501;45.956;13.632;2023-12-22T06:26:01;73.05;;;37.35;;
34236;SDS011;20501;45.956;13.632;2023-12-22T06:28:27;66.87;;;36.03;;
34236;SDS011;20501;45.956;13.632;2023-12-22T06:30:53;72.17;;;36.93;;
34236;SDS011;20501;45.956;13.632;2023-12-22T06:33:19;73.50;;;35.85;;
34236;SDS011;20501;45.956;13.632;2023-12-22T06:35:44;71.25;;;35.03;;
34236;SDS011;20501;45.956;13.632;2023-12-22T06:38:10;63.28;;;35.10;;
34236;SDS011;20501;45.956;13.632;2023-12-22T06:40:36;72.10;;;37.28;;
34236;SDS011;20501;45.956;13.632;2023-12-22T06:43:03;79.03;;;36.28;;
34236;SDS011;20501;45.956;13.632;2023-12-22T06:45:29;77.18;;;38.33;;
34236;SDS011;20501;45.956;13.632;2023-12-22T06:47:55;64.40;;;34.75;;
34236;SDS011;20501;45.956;13.632;2023-12-22T06:50:20;66.65;;;36.55;;
34236;SDS011;20501;45.956;13.632;2023-12-22T06:52:45;67.50;;;34.85;;
34236;SDS011;20501;45.956;13.632;2023-12-22T06:55:11;69.35;;;39.10;;
34236;SDS011;20501;45.956;13.632;2023-12-22T06:57:36;62.50;;;36.53;;
34236;SDS011;20501;45.956;13.632;2023-12-22T07:00:02;65.68;;;35.95;;
34236;SDS011;20501;45.956;13.632;2023-12-22T07:02:29;60.15;;;35.90;;
34236;SDS011;20501;45.956;13.632;2023-12-22T07:05:54;61.00;;;35.88;;
34236;SDS011;20501;45.956;13.632;2023-12-22T07:07:50;62.92;;;34.00;;
34236;SDS011;20501;45.956;13.632;2023-12-22T07:10:15;58.00;;;31.92;;
34236;SDS011;20501;45.956;13.632;2023-12-22T07:12:41;61.47;;;34.58;;
34236;SDS011;20501;45.956;13.632;2023-12-22T07:15:07;61.80;;;32.88;;
34236;SDS011;20501;45.956;13.632;2023-12-22T07:17:33;60.47;;;31.10;;
34236;SDS011;20501;45.956;13.632;2023-12-22T07:19:58;49.08;;;29.30;;
34236;SDS011;20501;45.956;13.632;2023-12-22T07:22:24;52.30;;;29.02;;
34236;SDS011;20501;45.956;13.632;2023-12-22T07:24:49;51.20;;;28.98;;
34236;SDS011;20501;45.956;13.632;2023-12-22T07:27:17;57.85;;;27.83;;
34236;SDS011;20501;45.956;13.632;2023-12-22T07:29:43;44.60;;;23.23;;
34236;SDS011;20501;45.956;13.632;2023-12-22T07:32:08;41.45;;;23.27;;
34236;SDS011;20501;45.956;13.632;2023-12-22T07:34:34;37.38;;;23.48;;
34236;SDS011;20501;45.956;13.632;2023-12-22T07:36:59;26.15;;;15.25;;
34236;SDS011;20501;45.956;13.632;2023-12-22T07:39:25;33.33;;;16.40;;
34236;SDS011;20501;45.956;13.632;2023-12-22T07:41:50;41.88;;;20.48;;
34236;SDS011;20501;45.956;13.632;2023-12-22T07:44:16;35.47;;;17.27;;
34236;SDS011;20501;45.956;13.632;2023-12-22T07:46:41;47.60;;;18.95;;
34236;SDS011;20501;45.956;13.632;2023-12-22T07:49:06;30.63;;;18.83;;
34236;SDS011;20501;45.956;13.632;2023-12-22T07:51:32;31.95;;;17.27;;
34236;SDS011;20501;45.956;13.632;2023-12-22T07:53:58;29.25;;;14.82;;
34236;SDS011;20501;45.956;13.632;2023-12-22T07:56:23;31.38;;;16.20;;
34236;SDS011;20501;45.956;13.632;2023-12-22T07:58:49;29.67;;;15.77;;
34236;SDS011;20501;45.956;13.632;2023-12-22T08:01:14;31.50;;;15.50;;
34236;SDS011;20501;45.956;13.632;2023-12-22T08:03:40;32.00;;;16.85;;
34236;SDS011;20501;45.956;13.632;2023-12-22T08:06:06;38.47;;;18.42;;
34236;SDS011;20501;45.956;13.632;2023-12-22T08:08:31;37.25;;;18.15;;
34236;SDS011;20501;45.956;13.632;2023-12-22T08:10:58;36.10;;;16.42;;
34236;SDS011;20501;45.956;13.632;2023-12-22T08:13:24;34.78;;;18.58;;
34236;SDS011;20501;45.956;13.632;2023-12-22T08:15:49;33.95;;;17.63;;
34236;SDS011;20501;45.956;13.632;2023-12-22T08:18:15;34.25;;;17.85;;
34236;SDS011;20501;45.956;13.632;2023-12-22T08:20:41;33.50;;;17.15;;
34236;SDS011;20501;45.956;13.632;2023-12-22T08:23:06;33.17;;;18.38;;
34236;SDS011;20501;45.956;13.632;2023-12-22T08:25:32;45.78;;;21.08;;
34236;SDS011;20501;45.956;13.632;2023-12-22T08:27:57;40.83;;;19.75;;
34236;SDS011;20501;45.956;13.632;2023-12-22T08:30:23;53.95;;;24.38;;
34236;SDS011;20501;45.956;13.632;2023-12-22T08:32:49;45.55;;;25.15;;
34236;SDS011;20501;45.956;13.632;2023-12-22T08:35:15;49.83;;;28.20;;
34236;SDS011;20501;45.956;13.632;2023-12-22T08:37:41;51.17;;;27.63;;
34236;SDS011;20501;45.956;13.632;2023-12-22T08:40:07;51.80;;;27.50;;
34236;SDS011;20501;45.956;13.632;2023-12-22T08:42:33;68.43;;;29.00;;
34236;SDS011;20501;45.956;13.632;2023-12-22T08:44:58;65.28;;;33.35;;
34236;SDS011;20501;45.956;13.632;2023-12-22T08:47:24;49.38;;;25.35;;
34236;SDS011;20501;45.956;13.632;2023-12-22T08:49:50;42.78;;;22.45;;
34236;SDS011;20501;45.956;13.632;2023-12-22T08:52:15;41.67;;;22.90;;
34236;SDS011;20501;45.956;13.632;2023-12-22T08:54:41;35.83;;;23.83;;
34236;SDS011;20501;45.956;13.632;2023-12-22T08:57:06;42.78;;;22.58;;
34236;SDS011;20501;45.956;13.632;2023-12-22T08:59:32;44.55;;;24.50;;
34236;SDS011;20501;45.956;13.632;2023-12-22T09:01:57;45.40;;;25.10;;
34236;SDS011;20501;45.956;13.632;2023-12-22T09:04:22;44.35;;;27.60;;
34236;SDS011;20501;45.956;13.632;2023-12-22T09:06:48;48.85;;;28.52;;
34236;SDS011;20501;45.956;13.632;2023-12-22T09:09:14;49.90;;;28.13;;
34236;SDS011;20501;45.956;13.632;2023-12-22T09:11:40;63.92;;;28.25;;
34236;SDS011;20501;45.956;13.632;2023-12-22T09:14:05;46.17;;;27.48;;
34236;SDS011;20501;45.956;13.632;2023-12-22T09:16:34;40.38;;;25.38;;
34236;SDS011;20501;45.956;13.632;2023-12-22T09:19:01;41.75;;;25.83;;
34236;SDS011;20501;45.956;13.632;2023-12-22T09:21:26;39.08;;;24.38;;
34236;SDS011;20501;45.956;13.632;2023-12-22T09:23:52;30.80;;;20.30;;
34236;SDS011;20501;45.956;13.632;2023-12-22T09:26:17;35.42;;;22.00;;
34236;SDS011;20501;45.956;13.632;2023-12-22T09:28:43;39.80;;;21.08;;
34236;SDS011;20501;45.956;13.632;2023-12-22T09:31:09;32.80;;;20.35;;
34236;SDS011;20501;45.956;13.632;2023-12-22T09:33:35;32.63;;;19.20;;
34236;SDS011;20501;45.956;13.632;2023-12-22T09:36:01;27.50;;;15.70;;
34236;SDS011;20501;45.956;13.632;2023-12-22T09:38:29;27.25;;;18.13;;
34236;SDS011;20501;45.956;13.632;2023-12-22T09:40:55;26.20;;;17.10;;
34236;SDS011;20501;45.956;13.632;2023-12-22T09:43:21;39.00;;;19.02;;
34236;SDS011;20501;45.956;13.632;2023-12-22T09:45:47;32.38;;;19.15;;
34236;SDS011;20501;45.956;13.632;2023-12-22T09:48:14;29.50;;;19.73;;
34236;SDS011;20501;45.956;13.632;2023-12-22T09:50:45;35.35;;;19.67;;
34236;SDS011;20501;45.956;13.632;2023-12-22T09:53:14;28.75;;;18.92;;
34236;SDS011;20501;45.956;13.632;2023-12-22T09:55:44;33.47;;;20.55;;
34236;SDS011;20501;45.956;13.632;2023-12-22T09:58:11;42.55;;;24.52;;
34236;SDS011;20501;45.956;13.632;2023-12-22T10:00:37;42.47;;;26.33;;
34236;SDS011;20501;45.956;13.632;2023-12-22T10:03:07;60.08;;;36.35;;
34236;SDS011;20501;45.956;13.632;2023-12-22T10:05:34;67.22;;;39.25;;
34236;SDS011;20501;45.956;13.632;2023-12-22T10:08:00;72.47;;;41.00;;
34236;SDS011;20501;45.956;13.632;2023-12-22T10:10:29;70.07;;;41.92;;
34236;SDS011;20501;45.956;13.632;2023-12-22T10:12:56;64.30;;;40.33;;
34236;SDS011;20501;45.956;13.632;2023-12-22T10:15:23;58.72;;;37.25;;
34236;SDS011;20501;45.956;13.632;2023-12-22T10:17:52;74.78;;;39.58;;
34236;SDS011;20501;45.956;13.632;2023-12-22T10:20:18;58.08;;;35.47;;
34236;SDS011;20501;45.956;13.632;2023-12-22T10:22:44;65.55;;;39.70;;
34236;SDS011;20501;45.956;13.632;2023-12-22T10:25:09;65.63;;;39.47;;
34236;SDS011;20501;45.956;13.632;2023-12-22T10:27:38;76.95;;;44.47;;
34236;SDS011;20501;45.956;13.632;2023-12-22T10:30:07;75.15;;;43.65;;
34236;SDS011;20501;45.956;13.632;2023-12-22T10:32:34;76.85;;;42.97;;
34236;SDS011;20501;45.956;13.632;2023-12-22T10:35:07;74.82;;;41.80;;
34236;SDS011;20501;45.956;13.632;2023-12-22T10:37:33;72.87;;;43.07;;
34236;SDS011;20501;45.956;13.632;2023-12-22T10:39:58;87.72;;;43.45;;
34236;SDS011;20501;45.956;13.632;2023-12-22T10:42:24;73.47;;;42.30;;
34236;SDS011;20501;45.956;13.632;2023-12-22T10:44:49;77.50;;;42.70;;
34236;SDS011;20501;45.956;13.632;2023-12-22T10:47:16;68.93;;;41.60;;
34236;SDS011;20501;45.956;13.632;2023-12-22T10:52:14;67.00;;;40.42;;
34236;SDS011;20501;45.956;13.632;2023-12-22T10:54:42;76.25;;;42.95;;
34236;SDS011;20501;45.956;13.632;2023-12-22T10:57:07;67.03;;;40.03;;
34236;SDS011;20501;45.956;13.632;2023-12-22T10:59:35;69.80;;;41.28;;
34236;SDS011;20501;45.956;13.632;2023-12-22T11:02:05;66.70;;;41.30;;
34236;SDS011;20501;45.956;13.632;2023-12-22T11:04:35;64.65;;;41.42;;
34236;SDS011;20501;45.956;13.632;2023-12-22T11:07:03;67.93;;;42.55;;
34236;SDS011;20501;45.956;13.632;2023-12-22T11:09:31;73.57;;;42.17;;
34236;SDS011;20501;45.956;13.632;2023-12-22T11:11:57;68.15;;;41.45;;
34236;SDS011;20501;45.956;13.632;2023-12-22T11:14:25;66.80;;;41.35;;
34236;SDS011;20501;45.956;13.632;2023-12-22T11:16:52;75.10;;;42.72;;
34236;SDS011;20501;45.956;13.632;2023-12-22T11:19:18;65.97;;;41.75;;
34236;SDS011;20501;45.956;13.632;2023-12-22T11:21:45;65.35;;;40.55;;
34236;SDS011;20501;45.956;13.632;2023-12-22T11:24:13;63.33;;;40.55;;
34236;SDS011;20501;45.956;13.632;2023-12-22T11:29:10;73.53;;;41.55;;
34236;SDS011;20501;45.956;13.632;2023-12-22T11:31:37;75.57;;;43.20;;
34236;SDS011;20501;45.956;13.632;2023-12-22T11:34:05;62.45;;;39.55;;
34236;SDS011;20501;45.956;13.632;2023-12-22T11:36:33;66.95;;;41.60;;
34236;SDS011;20501;45.956;13.632;2023-12-22T11:38:59;71.93;;;41.75;;
34236;SDS011;20501;45.956;13.632;2023-12-22T11:41:25;65.70;;;39.65;;
34236;SDS011;20501;45.956;13.632;2023-12-22T11:43:54;62.67;;;42.30;;
34236;SDS011;20501;45.956;13.632;2023-12-22T11:46:22;65.60;;;38.22;;
34236;SDS011;20501;45.956;13.632;2023-12-22T11:48:51;58.35;;;38.17;;
34236;SDS011;20501;45.956;13.632;2023-12-22T11:51:18;61.75;;;39.42;;
34236;SDS011;20501;45.956;13.632;2023-12-22T11:53:44;59.30;;;38.13;;
34236;SDS011;20501;45.956;13.632;2023-12-22T11:56:10;62.43;;;39.03;;
34236;SDS011;20501;45.956;13.632;2023-12-22T11:58:38;84.78;;;42.67;;
34236;SDS011;20501;45.956;13.632;2023-12-22T12:01:06;65.55;;;40.03;;
34236;SDS011;20501;45.956;13.632;2023-12-22T12:03:37;67.00;;;40.10;;
34236;SDS011;20501;45.956;13.632;2023-12-22T12:08:58;70.40;;;40.70;;
34236;SDS011;20501;45.956;13.632;2023-12-22T12:14:16;60.00;;;39.70;;
34236;SDS011;20501;45.956;13.632;2023-12-22T12:16:55;62.42;;;38.15;;
34236;SDS011;20501;45.956;13.632;2023-12-22T12:19:44;55.13;;;36.25;;
34236;SDS011;20501;45.956;13.632;2023-12-22T12:22:13;57.17;;;32.97;;
34236;SDS011;20501;45.956;13.632;2023-12-22T12:24:39;82.50;;;38.00;;
34236;SDS011;20501;45.956;13.632;2023-12-22T12:27:05;59.58;;;35.83;;
34236;SDS011;20501;45.956;13.632;2023-12-22T12:29:34;59.90;;;34.85;;
34236;SDS011;20501;45.956;13.632;2023-12-22T12:32:03;53.88;;;33.83;;
34236;SDS011;20501;45.956;13.632;2023-12-22T12:34:29;55.42;;;34.88;;
34236;SDS011;20501;45.956;13.632;2023-12-22T12:36:55;54.70;;;34.83;;
34236;SDS011;20501;45.956;13.632;2023-12-22T12:39:22;51.13;;;34.20;;
34236;SDS011;20501;45.956;13.632;2023-12-22T12:41:53;57.45;;;36.25;;
34236;SDS011;20501;45.956;13.632;2023-12-22T12:44:19;53.75;;;35.40;;
34236;SDS011;20501;45.956;13.632;2023-12-22T12:46:46;58.55;;;34.63;;
34236;SDS011;20501;45.956;13.632;2023-12-22T12:49:13;56.47;;;36.00;;
34236;SDS011;20501;45.956;13.632;2023-12-22T12:51:41;63.72;;;36.65;;
34236;SDS011;20501;45.956;13.632;2023-12-22T12:54:08;61.95;;;38.03;;
34236;SDS011;20501;45.956;13.632;2023-12-22T12:59:08;61.42;;;37.85;;
34236;SDS011;20501;45.956;13.632;2023-12-22T13:01:37;68.68;;;39.08;;
34236;SDS011;20501;45.956;13.632;2023-12-22T13:04:06;84.60;;;45.85;;
34236;SDS011;20501;45.956;13.632;2023-12-22T13:06:32;72.45;;;41.53;;
34236;SDS011;20501;45.956;13.632;2023-12-22T13:08:58;66.97;;;36.92;;
34236;SDS011;20501;45.956;13.632;2023-12-22T13:11:25;63.85;;;38.50;;
34236;SDS011;20501;45.956;13.632;2023-12-22T13:13:52;76.07;;;38.85;;
34236;SDS011;20501;45.956;13.632;2023-12-22T13:16:24;66.65;;;37.67;;
34236;SDS011;20501;45.956;13.632;2023-12-22T13:18:51;60.83;;;35.25;;
34236;SDS011;20501;45.956;13.632;2023-12-22T13:21:18;57.53;;;33.33;;
34236;SDS011;20501;45.956;13.632;2023-12-22T13:23:43;55.03;;;32.83;;
34236;SDS011;20501;45.956;13.632;2023-12-22T13:26:21;59.45;;;32.10;;
34236;SDS011;20501;45.956;13.632;2023-12-22T13:28:46;58.75;;;33.78;;
34236;SDS011;20501;45.956;13.632;2023-12-22T13:31:12;69.90;;;39.83;;
34236;SDS011;20501;45.956;13.632;2023-12-22T13:33:43;63.88;;;35.20;;
34236;SDS011;20501;45.956;13.632;2023-12-22T13:36:09;56.72;;;33.70;;
34236;SDS011;20501;45.956;13.632;2023-12-22T13:38:35;58.60;;;34.25;;
34236;SDS011;20501;45.956;13.632;2023-12-22T13:41:06;68.88;;;35.05;;
34236;SDS011;20501;45.956;13.632;2023-12-22T13:43:32;64.47;;;35.90;;
34236;SDS011;20501;45.956;13.632;2023-12-22T13:45:58;60.40;;;36.00;;
34236;SDS011;20501;45.956;13.632;2023-12-22T13:48:23;62.92;;;36.97;;
34236;SDS011;20501;45.956;13.632;2023-12-22T13:50:56;62.17;;;37.30;;
34236;SDS011;20501;45.956;13.632;2023-12-22T13:53:23;58.67;;;35.00;;
34236;SDS011;20501;45.956;13.632;2023-12-22T13:55:58;59.03;;;35.67;;
34236;SDS011;20501;45.956;13.632;2023-12-22T13:58:24;63.08;;;34.13;;
34236;SDS011;20501;45.956;13.632;2023-12-22T14:00:50;64.60;;;35.60;;
34236;SDS011;20501;45.956;13.632;2023-12-22T14:03:16;63.17;;;35.17;;
34236;SDS011;20501;45.956;13.632;2023-12-22T14:05:42;71.45;;;36.55;;
34236;SDS011;20501;45.956;13.632;2023-12-22T14:08:08;65.27;;;36.90;;
34236;SDS011;20501;45.956;13.632;2023-12-22T14:10:33;58.55;;;33.92;;
34236;SDS011;20501;45.956;13.632;2023-12-22T14:12:59;59.08;;;35.42;;
34236;SDS011;20501;45.956;13.632;2023-12-22T14:15:24;61.63;;;36.03;;
34236;SDS011;20501;45.956;13.632;2023-12-22T14:17:53;61.53;;;37.28;;
34236;SDS011;20501;45.956;13.632;2023-12-22T14:20:19;65.70;;;38.08;;
34236;SDS011;20501;45.956;13.632;2023-12-22T14:22:44;59.25;;;35.63;;
34236;SDS011;20501;45.956;13.632;2023-12-22T14:25:10;64.75;;;37.58;;
34236;SDS011;20501;45.956;13.632;2023-12-22T14:27:35;63.05;;;37.00;;
34236;SDS011;20501;45.956;13.632;2023-12-22T14:30:01;71.63;;;39.83;;